createdAt,value
2023-03-22T00:01:16.292Z,94.96
2023-03-22T00:03:45.451Z,93.09
2023-03-22T00:06:13.648Z,93.13
2023-03-22T00:08:41.545Z,93.06
2023-03-22T00:11:09.722Z,94.18
2023-03-22T00:13:38.172Z,93.26
2023-03-22T00:16:06.964Z,95.02
2023-03-22T00:18:34.814Z,94.49
2023-03-22T00:21:04.785Z,93.72
2023-03-22T00:23:32.674Z,93.82
2023-03-22T00:26:00.423Z,94.57
2023-03-22T00:28:28.138Z,95.49
2023-03-22T00:30:58.843Z,95.58
2023-03-22T00:33:27.142Z,95.60
2023-03-22T00:35:58.287Z,94.61
2023-03-22T00:38:42.081Z,93.59
2023-03-22T00:41:12.924Z,92.50
2023-03-22T00:43:41.824Z,94.00
2023-03-22T00:46:10.762Z,92.76
2023-03-22T00:48:38.676Z,93.71
2023-03-22T00:51:07.507Z,95.58
2023-03-22T00:53:37.038Z,95.59
2023-03-22T00:56:05.682Z,95.72
2023-03-22T00:58:33.986Z,94.85
2023-03-22T01:01:01.812Z,93.73
2023-03-22T01:03:29.569Z,95.04
2023-03-22T01:05:57.682Z,94.34
2023-03-22T01:08:25.696Z,94.38
2023-03-22T01:10:54.823Z,93.72
2023-03-22T01:13:22.585Z,94.74
2023-03-22T01:15:51.623Z,96.56
2023-03-22T01:18:19.673Z,96.12
2023-03-22T01:20:47.444Z,93.80
2023-03-22T01:23:15.154Z,92.86
2023-03-22T01:25:43.029Z,93.33
2023-03-22T01:28:12.193Z,94.20
2023-03-22T01:30:41.180Z,92.09
2023-03-22T01:33:09.462Z,93.25
2023-03-22T01:35:37.995Z,94.82
2023-03-22T01:38:06.078Z,95.53
2023-03-22T01:40:35.068Z,93.72
2023-03-22T01:43:03.916Z,93.90
2023-03-22T01:45:42.113Z,93.44
2023-03-22T01:48:16.479Z,93.48
2023-03-22T01:50:50.612Z,93.50
2023-03-22T01:53:23.683Z,92.29
2023-03-22T01:55:52.746Z,92.91
2023-03-22T01:58:21.084Z,92.46
2023-03-22T02:00:52.430Z,93.79
2023-03-22T02:03:27.971Z,93.82
2023-03-22T02:05:55.986Z,92.71
2023-03-22T02:08:23.910Z,92.95
2023-03-22T02:10:52.672Z,93.03
2023-03-22T02:13:38.955Z,94.04
2023-03-22T02:16:22.322Z,94.37
2023-03-22T02:19:08.310Z,92.10
2023-03-22T02:22:10.496Z,92.78
2023-03-22T02:24:56.550Z,92.90
2023-03-22T02:27:35.333Z,93.16
2023-03-22T02:30:25.190Z,91.95
2023-03-22T02:33:14.016Z,91.14
2023-03-22T02:36:03.074Z,90.82
2023-03-22T02:39:06.777Z,91.29
2023-03-22T02:41:47.856Z,91.92
2023-03-22T02:44:24.196Z,94.23
2023-03-22T02:47:01.248Z,92.21
2023-03-22T02:49:35.653Z,91.17
2023-03-22T02:52:12.320Z,92.99
2023-03-22T02:54:46.290Z,91.67
2023-03-22T02:57:21.446Z,90.35
2023-03-22T02:59:51.241Z,89.63
2023-03-22T03:02:20.769Z,93.23
2023-03-22T03:04:52.302Z,91.44
2023-03-22T03:07:23.776Z,90.45
2023-03-22T03:09:53.856Z,91.05
2023-03-22T03:12:24.798Z,90.21
2023-03-22T03:14:52.722Z,90.84
2023-03-22T03:17:41.963Z,94.21
2023-03-22T03:20:30.295Z,91.87
2023-03-22T03:23:15.893Z,92.59
2023-03-22T03:25:51.395Z,90.37
2023-03-22T03:28:29.981Z,91.33
2023-03-22T03:31:07.083Z,91.47
2023-03-22T03:33:40.127Z,93.01
2023-03-22T03:36:12.314Z,92.68
2023-03-22T03:38:43.898Z,92.12
2023-03-22T03:41:16.308Z,92.12
2023-03-22T03:43:46.059Z,91.72
2023-03-22T03:46:14.054Z,92.08
2023-03-22T03:48:46.387Z,91.80
2023-03-22T03:51:14.182Z,92.15
2023-03-22T03:53:42.049Z,91.64
2023-03-22T03:56:10.394Z,92.44
2023-03-22T03:58:39.453Z,91.67
2023-03-22T04:01:07.714Z,90.34
2023-03-22T04:03:35.547Z,92.06
2023-03-22T04:06:03.774Z,92.66
2023-03-22T04:08:31.546Z,91.64
2023-03-22T04:10:59.226Z,90.76
2023-03-22T04:13:27.090Z,90.60
2023-03-22T04:15:57.425Z,91.41
2023-03-22T04:18:25.245Z,88.83
2023-03-22T04:20:53.617Z,90.07
2023-03-22T04:23:22.605Z,91.39
2023-03-22T04:25:50.592Z,90.39
2023-03-22T04:28:19.799Z,90.33
2023-03-22T04:30:52.247Z,89.51
2023-03-22T04:33:22.965Z,89.25
2023-03-22T04:35:56.767Z,90.32
2023-03-22T04:38:25.275Z,88.88
2023-03-22T04:40:53.041Z,90.80
2023-03-22T04:43:20.740Z,89.01
2023-03-22T04:45:48.926Z,89.99
2023-03-22T04:48:17.626Z,91.02
2023-03-22T04:50:46.774Z,90.01
2023-03-22T04:53:14.538Z,89.78
2023-03-22T04:55:42.966Z,90.77
2023-03-22T04:58:10.686Z,89.92
2023-03-22T05:00:38.953Z,91.26
2023-03-22T05:03:06.930Z,91.21
2023-03-22T05:05:34.799Z,91.94
2023-03-22T05:08:03.995Z,90.09
2023-03-22T05:10:31.683Z,91.91
2023-03-22T05:12:59.415Z,90.80
2023-03-22T05:15:27.177Z,92.41
2023-03-22T05:17:55.894Z,90.88
2023-03-22T05:20:24.965Z,90.45
2023-03-22T05:22:57.033Z,90.27
2023-03-22T05:25:26.248Z,90.86
2023-03-22T05:27:54.284Z,90.53
2023-03-22T05:30:22.479Z,88.84
2023-03-22T05:32:51.058Z,88.40
2023-03-22T05:35:18.922Z,89.48
2023-03-22T05:37:46.648Z,88.40
2023-03-22T05:40:14.799Z,89.27
2023-03-22T05:42:43.996Z,89.34
2023-03-22T05:45:12.212Z,89.27
2023-03-22T05:47:40.024Z,89.25
2023-03-22T05:50:10.003Z,88.13
2023-03-22T05:52:38.091Z,87.40
2023-03-22T05:55:06.782Z,86.79
2023-03-22T05:57:34.592Z,87.56
2023-03-22T06:00:04.736Z,88.20
2023-03-22T06:02:32.677Z,87.36
2023-03-22T06:05:00.432Z,87.77
2023-03-22T06:07:28.173Z,87.99
2023-03-22T06:09:55.863Z,87.77
2023-03-22T06:12:26.364Z,88.92
2023-03-22T06:14:55.594Z,87.31
2023-03-22T06:17:25.041Z,89.04
2023-03-22T06:19:54.388Z,89.24
2023-03-22T06:22:22.819Z,88.56
2023-03-22T06:24:51.529Z,87.68
2023-03-22T06:27:19.379Z,88.50
2023-03-22T06:29:50.659Z,87.62
2023-03-22T06:32:18.510Z,85.97
2023-03-22T06:34:47.630Z,87.78
2023-03-22T06:37:16.386Z,87.31
2023-03-22T06:39:44.442Z,85.67
2023-03-22T06:42:12.255Z,86.18
2023-03-22T06:44:42.312Z,86.62
2023-03-22T06:47:10.093Z,86.44
2023-03-22T06:49:37.864Z,85.41
2023-03-22T06:52:07.556Z,85.21
2023-03-22T06:54:35.624Z,86.83
2023-03-22T06:57:03.414Z,86.40
2023-03-22T06:59:31.228Z,86.55
2023-03-22T07:02:00.272Z,86.45
2023-03-22T07:04:29.196Z,88.01
2023-03-22T07:06:56.958Z,85.78
2023-03-22T07:09:27.911Z,85.65
2023-03-22T07:11:55.788Z,86.79
2023-03-22T07:14:23.540Z,85.92
2023-03-22T07:16:51.194Z,85.40
2023-03-22T07:19:20.806Z,85.47
2023-03-22T07:21:48.696Z,85.99
2023-03-22T07:24:16.437Z,85.88
2023-03-22T07:26:45.524Z,85.73
2023-03-22T07:29:13.256Z,84.99
2023-03-22T07:31:42.633Z,85.82
2023-03-22T07:34:10.344Z,84.52
2023-03-22T07:36:38.281Z,84.44
2023-03-22T07:39:06.089Z,85.70
2023-03-22T07:41:33.934Z,87.23
2023-03-22T07:44:16.880Z,86.21
2023-03-22T07:46:45.702Z,87.66
2023-03-22T07:49:13.679Z,86.92
2023-03-22T07:51:42.118Z,87.51
2023-03-22T07:54:09.847Z,86.48
2023-03-22T07:56:37.911Z,87.15
2023-03-22T07:59:07.262Z,85.15
2023-03-22T08:01:35.155Z,86.57
2023-03-22T08:04:02.993Z,85.59
2023-03-22T08:06:32.747Z,85.34
2023-03-22T08:09:00.763Z,86.68
2023-03-22T08:11:28.668Z,86.66
2023-03-22T08:13:56.465Z,87.90
2023-03-22T08:16:25.774Z,87.31
2023-03-22T08:18:53.462Z,86.69
2023-03-22T08:21:21.355Z,85.63
2023-03-22T08:23:49.920Z,85.49
2023-03-22T08:26:17.852Z,82.54
2023-03-22T08:28:45.631Z,81.03
2023-03-22T08:31:15.466Z,81.75
2023-03-22T08:33:44.751Z,80.71
2023-03-22T08:36:15.580Z,77.36
2023-03-22T08:38:45.171Z,72.76
2023-03-22T08:41:13.378Z,74.29
2023-03-22T08:43:41.103Z,71.67
2023-03-22T08:46:09.362Z,69.68
2023-03-22T08:48:38.499Z,70.14
2023-03-22T08:51:08.099Z,70.02
2023-03-22T08:53:36.010Z,69.89
2023-03-22T08:56:04.065Z,70.80
2023-03-22T08:58:31.842Z,70.15
2023-03-22T09:00:59.613Z,69.66
2023-03-22T09:03:27.527Z,72.54
2023-03-22T09:05:55.393Z,65.68
2023-03-22T09:08:24.502Z,64.72
2023-03-22T09:10:52.458Z,61.80
2023-03-22T09:13:20.962Z,62.21
2023-03-22T09:15:49.162Z,62.69
2023-03-22T09:18:17.230Z,67.17
2023-03-22T09:20:45.813Z,68.49
2023-03-22T09:23:15.486Z,67.45
2023-03-22T09:25:45.700Z,69.02
2023-03-22T09:28:13.685Z,69.17
2023-03-22T09:30:41.789Z,72.12
2023-03-22T09:33:09.919Z,74.50
2023-03-22T09:35:41.991Z,71.91
2023-03-22T09:38:10.174Z,72.26
2023-03-22T09:40:44.375Z,72.85
2023-03-22T09:43:16.540Z,73.49
2023-03-22T09:45:47.573Z,72.72
2023-03-22T09:48:20.634Z,72.30
2023-03-22T09:50:51.482Z,70.74
2023-03-22T09:53:19.696Z,72.28
2023-03-22T09:55:56.021Z,71.87
2023-03-22T09:58:33.251Z,73.23
2023-03-22T10:01:06.378Z,73.72
2023-03-22T10:04:05.902Z,72.63
2023-03-22T10:06:33.853Z,73.37
2023-03-22T10:09:10.031Z,73.12
2023-03-22T10:11:46.250Z,70.83
2023-03-22T10:14:31.823Z,71.50
2023-03-22T10:17:03.836Z,70.56
2023-03-22T10:19:36.045Z,69.39
2023-03-22T10:22:07.042Z,70.60
2023-03-22T10:24:37.602Z,70.67
2023-03-22T10:27:15.497Z,70.18
2023-03-22T10:29:47.643Z,69.16
2023-03-22T10:32:17.962Z,69.71
2023-03-22T10:34:46.462Z,68.24
2023-03-22T10:37:17.642Z,68.70
2023-03-22T10:39:49.109Z,69.39
2023-03-22T10:42:20.747Z,68.38
2023-03-22T10:44:52.444Z,67.80
2023-03-22T10:47:28.278Z,67.27
2023-03-22T10:49:58.306Z,66.91
2023-03-22T10:52:39.497Z,68.63
2023-03-22T10:55:11.289Z,67.21
2023-03-22T10:57:39.874Z,66.96
2023-03-22T11:00:11.804Z,66.61
2023-03-22T11:02:48.365Z,65.92
2023-03-22T11:05:25.831Z,67.30
2023-03-22T11:07:54.220Z,67.07
2023-03-22T11:10:27.379Z,68.19
2023-03-22T11:12:57.971Z,66.61
2023-03-22T11:15:30.378Z,65.84
2023-03-22T11:18:05.708Z,66.29
2023-03-22T11:20:34.440Z,65.03
2023-03-22T11:23:05.295Z,66.63
2023-03-22T11:25:35.783Z,64.63
2023-03-22T11:28:11.121Z,64.63
2023-03-22T11:30:40.885Z,64.43
2023-03-22T11:33:19.886Z,64.91
2023-03-22T11:35:49.467Z,64.36
2023-03-22T11:38:26.508Z,64.15
2023-03-22T11:40:57.506Z,65.67
2023-03-22T11:43:29.256Z,67.21
2023-03-22T11:45:59.855Z,67.64
2023-03-22T11:48:30.435Z,66.79
2023-03-22T11:51:05.395Z,67.77
2023-03-22T11:53:35.404Z,68.20
2023-03-22T11:56:04.614Z,66.75
2023-03-22T11:58:48.940Z,66.99
2023-03-22T12:01:22.564Z,65.88
2023-03-22T12:03:56.179Z,66.27
2023-03-22T12:06:26.977Z,64.46
2023-03-22T12:08:58.974Z,66.28
2023-03-22T12:11:32.793Z,65.88
2023-03-22T12:14:04.134Z,66.47
2023-03-22T12:16:41.968Z,65.32
2023-03-22T12:19:24.377Z,66.29
2023-03-22T12:21:53.080Z,65.84
2023-03-22T12:24:30.983Z,64.65
2023-03-22T12:27:05.875Z,64.81
2023-03-22T12:29:35.266Z,63.93
2023-03-22T12:32:09.748Z,63.64
2023-03-22T12:34:41.952Z,64.04
2023-03-22T12:37:16.979Z,65.57
2023-03-22T12:39:51.407Z,65.57
2023-03-22T12:42:24.441Z,65.20
2023-03-22T12:45:04.732Z,65.16
2023-03-22T12:47:41.808Z,65.34
2023-03-22T12:50:15.260Z,68.16
2023-03-22T12:52:47.197Z,67.27
2023-03-22T12:55:22.956Z,68.56
2023-03-22T12:57:54.433Z,68.84
2023-03-22T13:00:27.729Z,71.83
2023-03-22T13:03:02.198Z,75.05
2023-03-22T13:05:33.317Z,77.22
2023-03-22T13:08:04.009Z,77.13
2023-03-22T13:10:49.644Z,76.30
2023-03-22T13:13:33.885Z,78.30
2023-03-22T13:16:14.386Z,78.97
2023-03-22T13:18:59.688Z,80.46
2023-03-22T13:21:29.828Z,80.27
2023-03-22T13:24:01.714Z,79.98
2023-03-22T13:26:36.421Z,79.69
2023-03-22T13:29:12.778Z,78.00
2023-03-22T13:31:44.664Z,79.52
2023-03-22T13:34:20.023Z,79.61
2023-03-22T13:36:53.809Z,77.17
2023-03-22T13:39:25.321Z,77.93
2023-03-22T13:42:07.172Z,76.72
2023-03-22T13:44:39.679Z,77.89
2023-03-22T13:47:10.352Z,77.54
2023-03-22T13:49:50.090Z,75.86
2023-03-22T13:52:28.362Z,76.61
2023-03-22T13:54:58.329Z,76.77
2023-03-22T13:57:50.228Z,75.99
2023-03-22T14:00:38.835Z,75.73
2023-03-22T14:03:15.692Z,76.24
2023-03-22T14:05:47.601Z,75.62
2023-03-22T14:08:22.646Z,74.81
2023-03-22T14:10:58.019Z,74.10
2023-03-22T14:13:32.745Z,75.05
2023-03-22T14:16:07.513Z,73.91
2023-03-22T14:18:37.961Z,74.85
2023-03-22T14:21:12.522Z,75.47
